createdAt,value
2022-10-23T00:01:39.222Z,6.69
2022-10-23T00:04:15.880Z,6.70
2022-10-23T00:06:43.718Z,6.62
2022-10-23T00:09:12.767Z,6.60
2022-10-23T00:11:41.498Z,6.64
2022-10-23T00:14:09.950Z,6.57
2022-10-23T00:16:37.118Z,6.44
2022-10-23T00:19:04.805Z,6.47
2022-10-23T00:21:31.756Z,6.36
2022-10-23T00:23:58.878Z,6.43
2022-10-23T00:26:25.881Z,6.45
2022-10-23T00:28:54.374Z,6.43
2022-10-23T00:31:22.519Z,6.37
2022-10-23T00:33:50.325Z,6.39
2022-10-23T00:36:19.881Z,6.40
2022-10-23T00:38:47.729Z,6.37
2022-10-23T00:41:25.434Z,6.33
2022-10-23T00:44:04.195Z,6.32
2022-10-23T00:46:32.500Z,6.29
2022-10-23T00:48:59.783Z,6.34
2022-10-23T00:51:31.787Z,6.36
2022-10-23T00:54:22.930Z,6.26
2022-10-23T00:56:48.084Z,6.42
2022-10-23T00:59:15.480Z,6.27
2022-10-23T01:01:42.945Z,6.39
2022-10-23T01:04:10.756Z,6.41
2022-10-23T01:06:50.968Z,6.34
2022-10-23T01:09:36.624Z,6.26
2022-10-23T01:12:48.706Z,6.20
2022-10-23T01:15:40.439Z,6.26
2022-10-23T01:18:35.411Z,6.26
2022-10-23T01:21:18.803Z,6.19
2022-10-23T01:24:25.197Z,6.25
2022-10-23T01:27:13.611Z,6.26
2022-10-23T01:29:49.924Z,6.21
2022-10-23T01:32:27.383Z,6.22
2022-10-23T01:35:12.324Z,6.10
2022-10-23T01:37:44.226Z,6.06
2022-10-23T01:40:23.629Z,5.97
2022-10-23T01:42:57.231Z,5.89
2022-10-23T01:45:37.942Z,5.77
2022-10-23T01:48:08.952Z,5.69
2022-10-23T01:50:38.496Z,5.63
2022-10-23T01:53:05.967Z,5.56
2022-10-23T01:55:33.868Z,5.46
2022-10-23T01:58:07.703Z,5.36
2022-10-23T02:00:42.159Z,5.36
2022-10-23T02:03:11.756Z,5.25
2022-10-23T02:05:39.564Z,5.09
2022-10-23T02:08:07.191Z,5.19
2022-10-23T02:10:56.217Z,5.16
2022-10-23T02:13:29.967Z,5.15
2022-10-23T02:16:20.519Z,5.06
2022-10-23T02:19:21.746Z,5.12
2022-10-23T02:21:52.792Z,5.01
2022-10-23T02:24:45.740Z,5.01
2022-10-23T02:27:19.236Z,5.01
2022-10-23T02:29:56.723Z,4.89
2022-10-23T02:32:26.890Z,4.96
2022-10-23T02:34:54.213Z,4.90
2022-10-23T02:39:49.313Z,4.91
2022-10-23T02:42:29.076Z,4.88
2022-10-23T02:45:27.027Z,4.85
2022-10-23T02:48:20.320Z,4.77
2022-10-23T02:51:43.893Z,4.75
2022-10-23T02:54:20.159Z,4.75
2022-10-23T02:57:06.268Z,4.77
2022-10-23T02:59:43.391Z,4.77
2022-10-23T03:02:25.507Z,4.70
2022-10-23T03:04:55.982Z,4.67
2022-10-23T03:07:26.057Z,4.64
2022-10-23T03:09:58.176Z,4.62
2022-10-23T03:12:25.159Z,4.57
2022-10-23T03:14:52.161Z,4.59
2022-10-23T03:17:19.206Z,4.61
2022-10-23T03:19:47.043Z,4.58
2022-10-23T03:22:14.450Z,4.57
2022-10-23T03:24:41.399Z,4.54
2022-10-23T03:27:08.445Z,4.52
2022-10-23T03:29:35.315Z,4.52
2022-10-23T03:32:02.373Z,4.51
2022-10-23T03:34:29.264Z,4.48
2022-10-23T03:36:56.425Z,4.41
2022-10-23T03:39:23.615Z,4.39
2022-10-23T03:41:50.739Z,4.42
2022-10-23T03:44:18.441Z,4.44
2022-10-23T03:46:45.879Z,4.45
2022-10-23T03:49:12.871Z,4.32
2022-10-23T03:51:44.918Z,4.29
2022-10-23T03:54:11.827Z,4.33
2022-10-23T03:56:38.887Z,4.29
2022-10-23T03:59:08.106Z,4.27
2022-10-23T04:01:35.167Z,4.33
2022-10-23T04:04:02.909Z,4.30
2022-10-23T04:06:33.763Z,4.26
2022-10-23T04:09:04.339Z,4.22
2022-10-23T04:11:33.654Z,4.21
2022-10-23T04:14:00.788Z,4.21
2022-10-23T04:16:27.701Z,4.26
2022-10-23T04:18:54.610Z,4.25
2022-10-23T04:21:21.545Z,4.24
2022-10-23T04:23:48.487Z,4.25
2022-10-23T04:26:17.823Z,4.28
2022-10-23T04:28:44.691Z,4.34
2022-10-23T04:31:11.738Z,4.42
2022-10-23T04:33:41.234Z,4.44
2022-10-23T04:36:09.455Z,4.50
2022-10-23T04:38:36.379Z,4.54
2022-10-23T04:41:05.596Z,4.48
2022-10-23T04:43:32.501Z,4.46
2022-10-23T04:46:03.791Z,4.56
2022-10-23T04:48:30.878Z,4.57
2022-10-23T04:51:23.779Z,4.50
2022-10-23T04:54:06.119Z,4.53
2022-10-23T04:56:56.020Z,4.68
2022-10-23T04:59:23.925Z,4.80
2022-10-23T05:01:50.954Z,4.87
2022-10-23T05:04:18.589Z,4.93
2022-10-23T05:07:14.771Z,4.94
2022-10-23T05:10:00.796Z,5.07
2022-10-23T05:12:39.282Z,4.95
2022-10-23T05:15:06.987Z,5.13
2022-10-23T05:17:37.157Z,5.22
2022-10-23T05:20:09.320Z,5.33
2022-10-23T05:22:39.631Z,5.38
2022-10-23T05:25:11.109Z,5.45
2022-10-23T05:27:39.800Z,5.40
2022-10-23T05:30:11.498Z,5.46
2022-10-23T05:32:40.169Z,5.56
2022-10-23T05:35:11.514Z,5.65
2022-10-23T05:37:41.976Z,5.62
2022-10-23T05:40:18.093Z,5.60
2022-10-23T05:42:46.324Z,5.78
2022-10-23T05:45:18.327Z,5.77
2022-10-23T05:48:10.860Z,5.84
2022-10-23T05:51:12.085Z,6.00
2022-10-23T05:54:09.100Z,6.13
2022-10-23T05:56:44.310Z,6.14
2022-10-23T05:59:23.342Z,6.23
2022-10-23T06:02:15.338Z,6.39
2022-10-23T06:04:50.652Z,6.54
2022-10-23T06:07:17.562Z,6.64
2022-10-23T06:09:46.178Z,6.58
2022-10-23T06:12:13.288Z,6.55
2022-10-23T06:14:43.076Z,6.66
2022-10-23T06:17:10.126Z,6.78
2022-10-23T06:19:43.660Z,6.69
2022-10-23T06:22:10.737Z,6.56
2022-10-23T06:24:50.776Z,6.60
2022-10-23T06:27:26.630Z,6.70
2022-10-23T06:29:55.199Z,6.66
2022-10-23T06:32:22.153Z,6.72
2022-10-23T06:35:02.204Z,6.75
2022-10-23T06:37:30.040Z,6.95
2022-10-23T06:40:07.966Z,6.94
2022-10-23T06:43:01.081Z,7.00
2022-10-23T06:45:30.124Z,7.30
2022-10-23T06:48:26.460Z,7.41
2022-10-23T06:51:07.480Z,7.46
2022-10-23T06:53:40.956Z,7.65
2022-10-23T06:56:29.402Z,7.54
2022-10-23T06:58:57.384Z,7.45
2022-10-23T07:01:24.706Z,7.41
2022-10-23T07:03:51.852Z,7.44
2022-10-23T07:06:24.439Z,7.44
2022-10-23T07:08:52.336Z,7.21
2022-10-23T07:11:48.299Z,7.53
2022-10-23T07:14:15.594Z,7.53
2022-10-23T07:16:42.627Z,7.47
2022-10-23T07:19:10.064Z,7.48
2022-10-23T07:21:52.094Z,7.71
2022-10-23T07:24:37.268Z,7.70
2022-10-23T07:27:13.142Z,7.91
2022-10-23T07:29:40.757Z,7.71
2022-10-23T07:32:07.934Z,7.70
2022-10-23T07:35:12.415Z,7.70
2022-10-23T07:37:43.603Z,7.78
2022-10-23T07:40:11.692Z,7.92
2022-10-23T07:42:43.682Z,7.83
2022-10-23T07:45:11.524Z,7.90
2022-10-23T07:47:42.105Z,8.00
2022-10-23T07:50:11.411Z,8.14
2022-10-23T07:52:38.369Z,8.18
2022-10-23T07:55:17.404Z,8.20
2022-10-23T07:57:50.612Z,8.15
2022-10-23T08:00:41.529Z,7.84
2022-10-23T08:03:16.464Z,7.88
2022-10-23T08:05:43.872Z,7.88
2022-10-23T08:08:10.802Z,7.79
2022-10-23T08:10:41.785Z,7.83
2022-10-23T08:13:13.963Z,7.77
2022-10-23T08:15:53.472Z,7.56
2022-10-23T08:18:45.374Z,7.47
2022-10-23T08:21:12.718Z,7.48
2022-10-23T08:23:39.723Z,7.47
2022-10-23T08:26:07.546Z,7.65
2022-10-23T08:28:35.691Z,7.81
2022-10-23T08:31:17.324Z,7.60
2022-10-23T08:33:59.563Z,7.74
2022-10-23T08:36:28.867Z,7.71
2022-10-23T08:38:58.445Z,7.81
2022-10-23T08:41:34.081Z,7.77
2022-10-23T08:44:45.225Z,7.60
2022-10-23T08:47:18.883Z,7.76
2022-10-23T08:53:22.377Z,7.64
2022-10-23T08:56:14.348Z,7.70
2022-10-23T09:01:36.752Z,7.87
2022-10-23T09:04:04.959Z,7.96
2022-10-23T09:07:19.577Z,8.19
2022-10-23T09:10:28.577Z,8.29
2022-10-23T09:13:03.029Z,8.40
2022-10-23T09:15:47.543Z,8.13
2022-10-23T09:18:16.409Z,8.01
2022-10-23T09:20:46.176Z,7.92
2022-10-23T09:23:17.574Z,8.14
2022-10-23T09:25:45.871Z,8.18
2022-10-23T09:28:20.484Z,8.06
2022-10-23T09:30:48.250Z,8.10
2022-10-23T09:33:24.305Z,7.91
2022-10-23T09:35:55.486Z,7.81
2022-10-23T09:38:45.306Z,7.94
2022-10-23T09:41:36.063Z,8.07
2022-10-23T09:44:08.647Z,8.00
2022-10-23T09:46:46.521Z,7.91
2022-10-23T09:49:24.014Z,7.88
2022-10-23T09:52:05.172Z,7.77
2022-10-23T09:55:02.484Z,7.75
2022-10-23T09:57:43.028Z,7.58
2022-10-23T10:00:16.933Z,7.61
2022-10-23T10:02:55.503Z,7.68
2022-10-23T10:05:44.045Z,7.65
2022-10-23T10:08:35.357Z,7.63
2022-10-23T10:11:35.499Z,7.76
2022-10-23T10:14:39.551Z,7.63
2022-10-23T10:17:21.440Z,7.74
2022-10-23T10:20:15.170Z,7.52
2022-10-23T10:23:12.936Z,7.50
2022-10-23T10:25:57.406Z,7.38
2022-10-23T10:28:31.729Z,7.59
2022-10-23T10:31:20.376Z,7.64
2022-10-23T10:33:53.986Z,7.82
2022-10-23T10:37:05.662Z,7.78
2022-10-23T10:39:44.668Z,7.85
2022-10-23T10:42:20.335Z,7.81
2022-10-23T10:44:57.128Z,7.88
2022-10-23T10:47:58.442Z,7.73
2022-10-23T10:50:49.949Z,7.72
2022-10-23T10:53:50.391Z,7.68
2022-10-23T10:56:20.812Z,7.64
2022-10-23T10:58:52.996Z,7.61
2022-10-23T11:01:28.941Z,7.54
2022-10-23T11:04:14.462Z,7.61
2022-10-23T11:06:44.836Z,7.45
2022-10-23T11:09:24.439Z,7.35
2022-10-23T11:11:51.461Z,7.41
2022-10-23T11:14:24.534Z,7.46
2022-10-23T11:17:24.477Z,7.45
2022-10-23T11:20:00.641Z,7.43
2022-10-23T11:22:38.651Z,7.51
2022-10-23T11:25:17.569Z,7.50
2022-10-23T11:27:53.330Z,7.48
2022-10-23T11:30:49.677Z,7.55
2022-10-23T11:33:55.715Z,7.61
2022-10-23T11:36:41.387Z,7.53
2022-10-23T11:39:19.659Z,7.44
2022-10-23T11:42:09.670Z,7.44
2022-10-23T11:44:46.829Z,7.42
2022-10-23T11:47:34.988Z,7.30
2022-10-23T11:50:08.262Z,7.40
2022-10-23T11:52:45.631Z,7.34
2022-10-23T11:55:26.656Z,7.16
2022-10-23T11:58:22.519Z,7.15
2022-10-23T12:01:20.782Z,7.20
2022-10-23T12:04:15.262Z,7.16
2022-10-23T12:06:47.082Z,7.40
2022-10-23T12:09:29.151Z,7.27
2022-10-23T12:12:04.886Z,7.31
2022-10-23T12:14:33.954Z,7.34
2022-10-23T12:17:01.127Z,7.42
2022-10-23T12:19:48.569Z,7.38
2022-10-23T12:22:16.333Z,7.45
2022-10-23T12:24:54.404Z,7.41
2022-10-23T12:27:46.482Z,7.45
2022-10-23T12:30:21.123Z,7.19
2022-10-23T12:33:05.924Z,7.39
2022-10-23T12:36:00.211Z,7.41
2022-10-23T12:38:32.573Z,7.47
2022-10-23T12:41:23.218Z,7.48
2022-10-23T12:43:57.868Z,7.51
2022-10-23T12:46:39.682Z,7.45
2022-10-23T12:49:16.088Z,7.38
2022-10-23T12:51:43.335Z,7.46
2022-10-23T12:54:19.756Z,7.41
2022-10-23T12:56:47.571Z,7.52
2022-10-23T12:59:22.968Z,7.34
2022-10-23T13:01:52.801Z,7.48
2022-10-23T13:04:30.828Z,7.57
2022-10-23T13:07:00.903Z,7.53
2022-10-23T13:09:30.947Z,7.52
2022-10-23T13:12:27.851Z,7.38
2022-10-23T13:14:56.010Z,7.41
2022-10-23T13:17:54.347Z,7.37
2022-10-23T13:20:28.314Z,7.38
2022-10-23T13:23:18.795Z,7.42
2022-10-23T13:26:27.398Z,7.36
2022-10-23T13:28:54.655Z,7.34
2022-10-23T13:31:21.749Z,7.33
2022-10-23T13:33:59.831Z,7.39
2022-10-23T13:36:28.832Z,7.45
2022-10-23T13:39:02.750Z,7.41
2022-10-23T13:41:45.333Z,7.36
2022-10-23T13:44:18.838Z,7.33
2022-10-23T13:46:46.485Z,7.35
2022-10-23T13:49:16.064Z,7.37
2022-10-23T13:51:49.888Z,7.43
2022-10-23T13:54:23.013Z,7.44
2022-10-23T13:56:51.229Z,7.41
2022-10-23T13:59:18.700Z,7.51
2022-10-23T14:01:47.449Z,7.33
2022-10-23T14:04:15.871Z,7.49
2022-10-23T14:06:43.995Z,7.48
2022-10-23T14:09:13.785Z,7.42
2022-10-23T14:11:41.280Z,7.42
2022-10-23T14:14:08.713Z,7.39
2022-10-23T14:16:35.933Z,7.47
2022-10-23T14:19:03.151Z,7.46
2022-10-23T14:21:30.310Z,7.42
2022-10-23T14:23:57.696Z,7.34
2022-10-23T14:26:27.658Z,7.40
2022-10-23T14:28:57.534Z,7.38
2022-10-23T14:31:27.052Z,7.23
2022-10-23T14:33:56.528Z,7.29
2022-10-23T14:36:23.913Z,7.31
2022-10-23T14:38:55.828Z,7.35
2022-10-23T14:41:23.613Z,7.30
2022-10-23T14:43:50.732Z,7.25
2022-10-23T14:46:22.054Z,7.32
2022-10-23T14:48:51.034Z,7.33
2022-10-23T14:51:27.644Z,7.33
2022-10-23T14:54:03.115Z,7.37
2022-10-23T14:56:32.424Z,7.41
2022-10-23T14:59:03.057Z,7.27
2022-10-23T15:01:36.319Z,7.30
2022-10-23T15:04:03.674Z,7.21
2022-10-23T15:06:30.839Z,7.22
2022-10-23T15:08:57.826Z,7.32
2022-10-23T15:11:26.223Z,7.28
2022-10-23T15:13:54.799Z,7.30
2022-10-23T15:16:23.370Z,7.21
2022-10-23T15:18:50.744Z,7.35
2022-10-23T15:21:18.552Z,7.15
2022-10-23T15:23:46.723Z,7.09
2022-10-23T15:26:20.799Z,7.14
2022-10-23T15:28:52.396Z,7.21
2022-10-23T15:31:43.287Z,7.12
2022-10-23T15:34:16.867Z,7.11
2022-10-23T15:36:45.273Z,7.14
2022-10-23T15:39:13.946Z,7.17
2022-10-23T15:41:42.620Z,7.01
2022-10-23T15:44:13.227Z,7.17
2022-10-23T15:46:40.254Z,7.15
2022-10-23T15:49:08.596Z,7.15
2022-10-23T15:51:37.075Z,7.19
2022-10-23T15:54:05.871Z,7.10
2022-10-23T15:56:33.338Z,7.13
2022-10-23T15:59:00.350Z,7.07
2022-10-23T16:01:28.114Z,7.08
2022-10-23T16:03:55.112Z,7.16
2022-10-23T16:06:22.126Z,7.24
2022-10-23T16:08:49.202Z,7.31
2022-10-23T16:11:24.579Z,7.22
2022-10-23T16:13:51.837Z,7.25
2022-10-23T16:16:18.812Z,7.21
2022-10-23T16:18:46.596Z,7.11
2022-10-23T16:21:19.240Z,7.23
2022-10-23T16:23:47.065Z,7.32
2022-10-23T16:26:14.695Z,7.28
2022-10-23T16:28:43.984Z,7.33
2022-10-23T16:31:19.306Z,7.38
2022-10-23T16:33:49.149Z,7.46
2022-10-23T16:36:17.262Z,7.50
2022-10-23T16:39:18.127Z,7.49
2022-10-23T16:42:04.825Z,7.48
2022-10-23T16:44:56.810Z,7.54
2022-10-23T16:47:24.161Z,7.38
2022-10-23T16:49:51.268Z,7.50
2022-10-23T16:52:18.283Z,7.44
2022-10-23T16:54:45.229Z,7.46
2022-10-23T16:57:12.083Z,7.47
2022-10-23T16:59:39.057Z,7.54
2022-10-23T17:02:06.088Z,7.52
2022-10-23T17:04:33.164Z,7.57
2022-10-23T17:07:00.015Z,7.63
2022-10-23T17:09:29.822Z,7.48
2022-10-23T17:11:59.566Z,7.39
2022-10-23T17:14:29.209Z,7.44
2022-10-23T17:16:59.418Z,7.41
2022-10-23T17:22:17.837Z,7.48
2022-10-23T17:24:47.455Z,7.52
2022-10-23T17:27:17.406Z,7.50
2022-10-23T17:29:44.447Z,7.42
2022-10-23T17:32:11.376Z,7.28
2022-10-23T17:34:38.487Z,7.27
2022-10-23T17:37:05.559Z,7.36
2022-10-23T17:39:32.441Z,7.32
2022-10-23T17:41:59.412Z,7.43
2022-10-23T17:44:26.538Z,7.47
2022-10-23T17:46:54.901Z,7.49
2022-10-23T17:49:23.198Z,7.43
2022-10-23T17:51:55.345Z,7.52
2022-10-23T17:54:23.453Z,7.42
2022-10-23T17:56:50.980Z,7.55
2022-10-23T17:59:19.861Z,7.63
2022-10-23T18:01:48.524Z,7.67
2022-10-23T18:04:18.860Z,7.61
2022-10-23T18:06:52.874Z,7.56
2022-10-23T18:09:21.907Z,7.56
2022-10-23T18:11:49.711Z,7.66
2022-10-23T18:14:19.490Z,7.70
2022-10-23T18:16:46.553Z,7.72
2022-10-23T18:19:15.414Z,7.74
2022-10-23T18:21:42.415Z,7.78
2022-10-23T18:24:10.222Z,7.79
2022-10-23T18:26:39.296Z,7.83
2022-10-23T18:29:09.871Z,7.83
2022-10-23T18:31:37.688Z,7.73
2022-10-23T18:34:10.189Z,7.81
2022-10-23T18:36:39.772Z,7.83
2022-10-23T18:39:10.064Z,7.77
2022-10-23T18:41:40.380Z,7.71
2022-10-23T18:44:07.987Z,7.61
2022-10-23T18:46:35.126Z,7.77
2022-10-23T18:49:02.247Z,7.73
2022-10-23T18:51:34.817Z,7.73
2022-10-23T18:54:05.711Z,7.69
2022-10-23T18:56:35.155Z,7.79
2022-10-23T18:59:04.243Z,7.75
2022-10-23T19:01:31.989Z,7.77
2022-10-23T19:04:01.388Z,7.74
2022-10-23T19:06:29.839Z,7.81
2022-10-23T19:08:57.059Z,7.76
2022-10-23T19:11:25.943Z,7.76
2022-10-23T19:13:52.889Z,7.75
2022-10-23T19:16:26.364Z,7.77
2022-10-23T19:19:03.274Z,7.79
2022-10-23T19:21:34.801Z,7.84
2022-10-23T19:24:05.855Z,7.83
2022-10-23T19:26:35.989Z,7.78
2022-10-23T19:29:04.708Z,7.70
2022-10-23T19:31:31.700Z,7.75
2022-10-23T19:33:58.580Z,7.73
2022-10-23T19:36:25.507Z,7.74
2022-10-23T19:38:52.472Z,7.75
2022-10-23T19:41:19.461Z,7.68
2022-10-23T19:43:46.436Z,7.78
2022-10-23T19:46:13.397Z,7.78
2022-10-23T19:48:45.042Z,7.84
2022-10-23T19:51:13.480Z,7.78
2022-10-23T19:53:42.092Z,7.82
2022-10-23T19:56:11.666Z,7.73
2022-10-23T19:58:39.485Z,7.81
2022-10-23T20:01:11.474Z,7.85
2022-10-23T20:03:40.282Z,7.81
2022-10-23T20:06:12.576Z,7.87
2022-10-23T20:08:40.092Z,7.89
2022-10-23T20:11:08.542Z,7.73
2022-10-23T20:13:36.083Z,7.86
2022-10-23T20:16:03.045Z,7.88
2022-10-23T20:18:31.051Z,7.89
2022-10-23T20:21:02.380Z,7.80
2022-10-23T20:23:29.522Z,7.81
2022-10-23T20:26:16.013Z,7.80
2022-10-23T20:28:47.179Z,7.82
2022-10-23T20:31:15.901Z,7.60
2022-10-23T20:33:43.303Z,7.81
2022-10-23T20:36:22.370Z,7.76
2022-10-23T20:38:49.569Z,7.85
2022-10-23T20:41:16.615Z,7.85
2022-10-23T20:43:43.985Z,7.85
2022-10-23T20:46:11.087Z,7.67
2022-10-23T20:48:40.659Z,7.65
2022-10-23T20:51:19.241Z,7.52
2022-10-23T20:53:46.871Z,7.65
2022-10-23T20:56:19.237Z,7.67
2022-10-23T20:58:47.253Z,7.62
2022-10-23T21:01:19.059Z,7.22
2022-10-23T21:03:51.175Z,7.48
2022-10-23T21:06:19.126Z,7.49
2022-10-23T21:08:46.267Z,7.37
2022-10-23T21:11:16.830Z,7.41
2022-10-23T21:13:44.736Z,7.48
2022-10-23T21:16:16.592Z,7.51
2022-10-23T21:18:46.285Z,7.57
2022-10-23T21:21:19.324Z,7.60
2022-10-23T21:23:48.407Z,7.63
2022-10-23T21:26:16.450Z,7.61
2022-10-23T21:28:56.033Z,7.63
2022-10-23T21:31:33.800Z,7.66
2022-10-23T21:34:01.007Z,7.65
2022-10-23T21:36:29.965Z,7.64
2022-10-23T21:38:58.962Z,7.66
2022-10-23T21:41:28.963Z,7.48
2022-10-23T21:43:58.750Z,7.52
2022-10-23T21:46:26.891Z,7.54
2022-10-23T21:48:53.993Z,7.58
2022-10-23T21:51:25.425Z,7.65
2022-10-23T21:53:53.964Z,7.66
2022-10-23T21:56:32.695Z,7.67
2022-10-23T21:59:01.334Z,7.61
2022-10-23T22:01:29.306Z,7.73
2022-10-23T22:03:56.872Z,7.68
2022-10-23T22:06:26.915Z,7.66
2022-10-23T22:08:55.382Z,7.70
2022-10-23T22:11:22.697Z,7.68
2022-10-23T22:13:49.923Z,7.68
2022-10-23T22:16:17.855Z,7.75
2022-10-23T22:18:44.900Z,7.70
2022-10-23T22:21:15.900Z,7.64
2022-10-23T22:23:43.169Z,7.61
2022-10-23T22:26:18.188Z,7.64
2022-10-23T22:28:45.088Z,7.69
2022-10-23T22:31:20.236Z,7.70
2022-10-23T22:33:47.669Z,7.73
2022-10-23T22:36:14.897Z,7.73
2022-10-23T22:38:41.928Z,7.63
2022-10-23T22:41:09.285Z,7.61
2022-10-23T22:43:36.298Z,7.66
2022-10-23T22:46:09.378Z,7.66
2022-10-23T22:48:36.787Z,7.67
2022-10-23T22:51:07.344Z,7.73
2022-10-23T22:53:36.117Z,7.72
2022-10-23T22:56:09.422Z,7.80
2022-10-23T22:58:37.331Z,7.84
2022-10-23T23:01:24.490Z,7.85
2022-10-23T23:03:52.065Z,7.86
2022-10-23T23:06:20.020Z,7.87
2022-10-23T23:08:47.860Z,7.83
2022-10-23T23:11:17.241Z,7.82
2022-10-23T23:13:46.265Z,7.86
2022-10-23T23:16:28.283Z,7.86
2022-10-23T23:18:58.382Z,7.85
2022-10-23T23:21:25.649Z,7.86
2022-10-23T23:23:53.340Z,7.88
2022-10-23T23:26:20.636Z,7.91
2022-10-23T23:28:51.864Z,7.94
2022-10-23T23:31:24.654Z,7.99
2022-10-23T23:33:53.611Z,7.97
2022-10-23T23:36:26.691Z,7.99
2022-10-23T23:38:55.419Z,8.00
2022-10-23T23:41:23.616Z,7.90
2022-10-23T23:43:52.862Z,7.86
2022-10-23T23:46:19.832Z,7.87
2022-10-23T23:48:49.974Z,7.85
2022-10-23T23:51:19.375Z,7.87
2022-10-23T23:53:47.199Z,7.81
2022-10-23T23:56:14.947Z,7.83
2022-10-23T23:58:41.933Z,7.80
